createdAt,value
2022-10-13T00:00:57.300Z,14.07
2022-10-13T00:03:23.849Z,14.30
2022-10-13T00:05:51.009Z,14.32
2022-10-13T00:08:20.249Z,14.57
2022-10-13T00:10:49.306Z,14.50
2022-10-13T00:13:20.186Z,14.45
2022-10-13T00:15:47.616Z,14.85
2022-10-13T00:18:14.776Z,14.50
2022-10-13T00:20:43.754Z,14.65
2022-10-13T00:23:10.276Z,16.52
2022-10-13T00:25:44.117Z,15.07
2022-10-13T00:28:10.948Z,15.35
2022-10-13T00:30:38.059Z,14.23
2022-10-13T00:33:04.592Z,14.90
2022-10-13T00:35:31.094Z,15.82
2022-10-13T00:37:57.748Z,16.05
2022-10-13T00:40:27.851Z,15.55
2022-10-13T00:42:54.343Z,15.35
2022-10-13T00:45:24.702Z,15.32
2022-10-13T00:47:59.204Z,15.88
2022-10-13T00:50:33.537Z,15.40
2022-10-13T00:53:02.586Z,14.68
2022-10-13T00:55:32.166Z,15.65
2022-10-13T00:58:05.069Z,16.55
2022-10-13T01:00:32.713Z,16.35
2022-10-13T01:02:59.225Z,16.23
2022-10-13T01:05:25.832Z,16.90
2022-10-13T01:07:55.293Z,16.90
2022-10-13T01:10:28.966Z,16.42
2022-10-13T01:15:41.845Z,15.95
2022-10-13T01:21:05.317Z,15.52
2022-10-13T01:23:48.696Z,15.77
2022-10-13T01:26:42.327Z,16.50
2022-10-13T01:29:47.776Z,16.63
2022-10-13T01:32:27.420Z,16.05
2022-10-13T01:35:10.095Z,15.77
2022-10-13T01:37:49.791Z,16.95
2022-10-13T01:40:26.282Z,15.38
2022-10-13T01:43:22.095Z,16.25
2022-10-13T01:45:57.640Z,13.88
2022-10-13T01:48:24.266Z,15.35
2022-10-13T01:50:52.209Z,15.07
2022-10-13T01:53:19.758Z,15.63
2022-10-13T01:55:58.229Z,15.60
2022-10-13T01:58:27.566Z,16.58
2022-10-13T02:01:10.931Z,17.17
2022-10-13T02:04:03.847Z,15.48
2022-10-13T02:06:39.706Z,15.75
2022-10-13T02:09:15.261Z,16.30
2022-10-13T02:11:48.232Z,17.58
2022-10-13T02:14:20.382Z,15.38
2022-10-13T02:16:47.208Z,17.00
2022-10-13T02:19:17.098Z,15.30
2022-10-13T02:21:44.379Z,15.85
2022-10-13T02:24:11.276Z,15.93
2022-10-13T02:26:38.268Z,17.40
2022-10-13T02:29:13.442Z,15.17
2022-10-13T02:31:40.526Z,16.85
2022-10-13T02:34:07.456Z,17.88
2022-10-13T02:36:34.558Z,16.05
2022-10-13T02:39:01.059Z,14.13
2022-10-13T02:41:27.533Z,15.57
2022-10-13T02:43:54.054Z,16.48
2022-10-13T02:46:21.838Z,16.33
2022-10-13T02:48:48.280Z,15.05
2022-10-13T02:51:14.787Z,17.13
2022-10-13T02:53:41.375Z,15.77
2022-10-13T02:56:07.995Z,16.67
2022-10-13T02:58:36.882Z,16.65
2022-10-13T03:01:11.406Z,16.48
2022-10-13T03:03:38.681Z,16.15
2022-10-13T03:06:05.870Z,16.20
2022-10-13T03:08:33.982Z,16.67
2022-10-13T03:11:00.541Z,15.60
2022-10-13T03:13:27.482Z,16.85
2022-10-13T03:16:03.298Z,18.15
2022-10-13T03:18:30.105Z,16.73
2022-10-13T03:20:58.163Z,17.83
2022-10-13T03:23:24.624Z,17.85
2022-10-13T03:25:51.082Z,18.17
2022-10-13T03:28:17.601Z,16.92
2022-10-13T03:30:45.825Z,15.85
2022-10-13T03:33:12.705Z,18.05
2022-10-13T03:35:39.155Z,17.20
2022-10-13T03:38:05.629Z,18.52
2022-10-13T03:40:32.647Z,16.95
2022-10-13T03:42:59.081Z,18.20
2022-10-13T03:45:26.717Z,17.88
2022-10-13T03:47:53.175Z,18.58
2022-10-13T03:50:19.791Z,16.05
2022-10-13T03:52:46.737Z,18.20
2022-10-13T03:55:13.212Z,19.00
2022-10-13T03:57:39.645Z,19.40
2022-10-13T04:00:10.581Z,18.88
2022-10-13T04:02:39.138Z,18.08
2022-10-13T04:05:05.962Z,17.92
2022-10-13T04:07:32.410Z,18.92
2022-10-13T04:10:06.062Z,20.10
2022-10-13T04:12:36.189Z,19.70
2022-10-13T04:15:02.617Z,15.55
2022-10-13T04:17:29.124Z,20.40
2022-10-13T04:19:55.579Z,21.77
2022-10-13T04:22:22.467Z,21.33
2022-10-13T04:24:49.282Z,14.40
2022-10-13T04:27:16.927Z,21.35
2022-10-13T04:29:43.392Z,20.38
2022-10-13T04:32:09.854Z,19.92
2022-10-13T04:34:36.350Z,22.33
2022-10-13T04:37:02.789Z,22.42
2022-10-13T04:39:29.253Z,22.30
2022-10-13T04:41:55.764Z,21.27
2022-10-13T04:44:22.233Z,22.30
2022-10-13T04:46:48.742Z,23.00
2022-10-13T04:49:16.302Z,22.58
2022-10-13T04:51:42.897Z,20.33
2022-10-13T04:54:09.977Z,20.95
2022-10-13T04:56:36.670Z,19.40
2022-10-13T04:59:05.718Z,21.13
2022-10-13T05:01:32.770Z,20.67
2022-10-13T05:04:01.218Z,21.98
2022-10-13T05:06:32.170Z,22.65
2022-10-13T05:08:59.105Z,20.80
2022-10-13T05:11:26.616Z,22.33
2022-10-13T05:13:53.331Z,22.10
2022-10-13T05:16:21.028Z,17.05
2022-10-13T05:18:48.774Z,18.17
2022-10-13T05:21:20.681Z,20.25
2022-10-13T05:23:47.155Z,17.15
2022-10-13T05:26:15.976Z,20.58
2022-10-13T05:28:42.860Z,18.70
2022-10-13T05:31:10.317Z,22.88
2022-10-13T05:33:37.342Z,18.40
2022-10-13T05:36:08.734Z,19.23
2022-10-13T05:38:37.621Z,20.67
2022-10-13T05:41:10.272Z,21.25
2022-10-13T05:43:37.823Z,20.65
2022-10-13T05:46:04.657Z,18.45
2022-10-13T05:48:36.207Z,20.08
2022-10-13T05:51:06.601Z,20.83
2022-10-13T05:53:36.058Z,22.08
2022-10-13T05:56:08.848Z,14.77
2022-10-13T05:58:41.049Z,21.20
2022-10-13T06:01:10.135Z,23.42
2022-10-13T06:03:37.353Z,22.25
2022-10-13T06:06:03.986Z,20.52
2022-10-13T06:08:30.450Z,23.55
2022-10-13T06:10:56.937Z,22.67
2022-10-13T06:13:23.386Z,23.10
2022-10-13T06:15:49.866Z,21.17
2022-10-13T06:18:16.314Z,20.95
2022-10-13T06:20:43.553Z,22.50
2022-10-13T06:23:15.082Z,19.38
2022-10-13T06:25:51.802Z,20.20
2022-10-13T06:28:18.999Z,23.63
2022-10-13T06:30:53.674Z,20.95
2022-10-13T06:33:22.213Z,22.92
2022-10-13T06:35:48.724Z,22.20
2022-10-13T06:38:15.264Z,18.25
2022-10-13T06:40:42.176Z,23.10
2022-10-13T06:43:09.394Z,22.88
2022-10-13T06:45:41.054Z,21.75
2022-10-13T06:48:07.566Z,19.70
2022-10-13T06:50:34.080Z,23.77
2022-10-13T06:53:00.562Z,23.80
2022-10-13T06:55:27.187Z,23.65
2022-10-13T06:57:53.627Z,23.73
2022-10-13T07:00:20.607Z,22.30
2022-10-13T07:02:50.279Z,22.38
2022-10-13T07:05:16.794Z,22.90
2022-10-13T07:07:43.300Z,23.67
2022-10-13T07:10:10.109Z,25.90
2022-10-13T07:12:36.614Z,25.77
2022-10-13T07:15:03.315Z,24.13
2022-10-13T07:17:29.774Z,21.77
2022-10-13T07:19:57.962Z,23.13
2022-10-13T07:22:24.835Z,24.75
2022-10-13T07:24:51.318Z,25.30
2022-10-13T07:27:19.450Z,24.17
2022-10-13T07:29:46.019Z,24.15
2022-10-13T07:32:12.490Z,24.05
2022-10-13T07:34:38.990Z,21.48
2022-10-13T07:37:05.420Z,26.30
2022-10-13T07:39:31.928Z,23.83
2022-10-13T07:41:58.372Z,24.90
2022-10-13T07:44:24.997Z,25.25
2022-10-13T07:46:51.545Z,21.65
2022-10-13T07:49:18.041Z,23.88
2022-10-13T07:51:44.605Z,22.42
2022-10-13T07:54:11.081Z,22.92
2022-10-13T07:56:38.286Z,21.88
2022-10-13T07:59:05.314Z,21.60
2022-10-13T08:01:32.091Z,23.58
2022-10-13T08:03:59.169Z,24.08
2022-10-13T08:06:25.703Z,24.50
2022-10-13T08:08:54.344Z,24.23
2022-10-13T08:11:20.919Z,25.25
2022-10-13T08:13:51.754Z,26.25
2022-10-13T08:16:20.415Z,25.97
2022-10-13T08:18:48.446Z,24.73
2022-10-13T08:24:08.754Z,26.33
2022-10-13T08:26:35.230Z,24.88
2022-10-13T08:29:21.880Z,24.83
2022-10-13T08:34:15.734Z,25.25
2022-10-13T08:36:42.649Z,24.65
2022-10-13T08:39:10.025Z,24.55
2022-10-13T08:41:39.254Z,25.65
2022-10-13T08:47:13.326Z,24.58
2022-10-13T08:49:41.245Z,23.25
2022-10-13T08:52:16.845Z,24.38
2022-10-13T08:54:43.488Z,23.10
2022-10-13T08:57:10.722Z,22.30
2022-10-13T08:59:37.203Z,24.88
2022-10-13T09:02:11.025Z,24.33
2022-10-13T09:04:41.586Z,23.80
2022-10-13T09:07:28.921Z,22.45
2022-10-13T09:09:55.586Z,24.40
2022-10-13T09:12:25.008Z,23.38
2022-10-13T09:15:05.271Z,23.70
2022-10-13T09:17:33.157Z,23.23
2022-10-13T09:20:04.525Z,24.80
2022-10-13T09:22:33.986Z,25.70
2022-10-13T09:25:06.436Z,24.73
2022-10-13T09:27:42.000Z,24.67
2022-10-13T09:30:38.108Z,24.00
2022-10-13T09:33:04.503Z,24.02
2022-10-13T09:35:34.213Z,24.23
2022-10-13T09:38:21.908Z,21.45
2022-10-13T09:41:00.652Z,23.58
2022-10-13T09:44:02.677Z,24.15
2022-10-13T09:46:54.847Z,23.80
2022-10-13T09:49:41.811Z,22.35
2022-10-13T09:52:19.505Z,23.02
2022-10-13T09:54:47.665Z,22.30
2022-10-13T09:57:31.610Z,24.13
2022-10-13T10:02:47.178Z,24.10
2022-10-13T10:08:11.530Z,24.42
2022-10-13T10:10:40.141Z,23.92
2022-10-13T10:13:13.053Z,25.13
2022-10-13T10:15:42.499Z,25.52
2022-10-13T10:18:15.665Z,25.98
2022-10-13T10:20:53.569Z,25.83
2022-10-13T10:23:29.363Z,26.27
2022-10-13T10:26:00.000Z,26.55
2022-10-13T10:28:37.233Z,26.67
2022-10-13T10:31:24.883Z,26.52
2022-10-13T10:34:07.860Z,26.25
2022-10-13T10:36:53.594Z,27.17
2022-10-13T10:39:41.722Z,26.70
2022-10-13T10:42:40.291Z,26.20
2022-10-13T10:45:16.257Z,29.13
2022-10-13T10:47:46.256Z,31.02
2022-10-13T10:50:17.487Z,29.65
2022-10-13T10:53:06.735Z,29.45
2022-10-13T10:55:35.955Z,31.90
2022-10-13T10:58:34.736Z,31.63
2022-10-13T11:01:13.561Z,31.67
2022-10-13T11:03:54.272Z,33.13
2022-10-13T11:06:36.447Z,29.98
2022-10-13T11:09:04.307Z,33.25
2022-10-13T11:11:37.195Z,35.35
2022-10-13T11:14:05.470Z,36.15
2022-10-13T11:16:37.867Z,35.50
2022-10-13T11:19:32.022Z,31.95
2022-10-13T11:21:58.344Z,36.15
2022-10-13T11:24:33.804Z,34.03
2022-10-13T11:27:10.562Z,35.60
2022-10-13T11:29:45.668Z,34.55
2022-10-13T11:32:27.419Z,33.17
2022-10-13T11:35:00.854Z,36.33
2022-10-13T11:37:38.063Z,36.92
2022-10-13T11:40:15.079Z,37.63
2022-10-13T11:43:09.256Z,35.03
2022-10-13T11:45:59.902Z,32.78
2022-10-13T11:48:45.277Z,33.75
2022-10-13T11:51:30.109Z,34.80
2022-10-13T11:54:13.610Z,35.20
2022-10-13T11:56:54.834Z,36.83
2022-10-13T11:59:32.183Z,34.95
2022-10-13T12:02:11.004Z,36.42
2022-10-13T12:04:41.545Z,35.78
2022-10-13T12:07:13.417Z,36.17
2022-10-13T12:09:53.142Z,35.03
2022-10-13T12:12:22.916Z,36.03
2022-10-13T12:14:55.098Z,37.35
2022-10-13T12:17:26.248Z,38.28
2022-10-13T12:19:55.433Z,38.25
2022-10-13T12:22:22.369Z,39.30
2022-10-13T12:25:05.718Z,38.55
2022-10-13T12:27:42.725Z,40.08
2022-10-13T12:30:29.873Z,38.33
2022-10-13T12:32:58.861Z,40.05
2022-10-13T12:35:33.645Z,41.10
2022-10-13T12:38:02.586Z,40.00
2022-10-13T12:40:30.344Z,39.45
2022-10-13T12:42:57.127Z,41.92
2022-10-13T12:45:27.020Z,41.50
2022-10-13T12:47:54.785Z,41.95
2022-10-13T12:50:30.015Z,41.67
2022-10-13T12:53:04.260Z,40.85
2022-10-13T12:55:31.477Z,39.88
2022-10-13T12:57:58.034Z,40.13
2022-10-13T13:00:26.872Z,38.67
2022-10-13T13:03:05.514Z,36.28
2022-10-13T13:05:46.790Z,36.83
2022-10-13T13:08:30.051Z,32.72
2022-10-13T13:10:58.078Z,32.20
2022-10-13T13:13:24.830Z,28.15
2022-10-13T13:15:51.802Z,29.13
2022-10-13T13:18:31.920Z,24.30
2022-10-13T13:20:58.605Z,25.83
2022-10-13T13:23:26.593Z,22.48
2022-10-13T13:26:18.631Z,25.75
2022-10-13T13:28:48.131Z,27.25
2022-10-13T13:31:16.846Z,26.55
2022-10-13T13:33:43.452Z,25.85
2022-10-13T13:36:15.942Z,28.50
2022-10-13T13:38:43.761Z,26.05
2022-10-13T13:41:11.462Z,27.60
2022-10-13T13:43:38.354Z,24.98
2022-10-13T13:46:06.105Z,28.48
2022-10-13T13:48:33.133Z,24.00
2022-10-13T13:51:01.719Z,25.40
2022-10-13T13:53:28.182Z,17.05
2022-10-13T13:55:54.815Z,17.90
2022-10-13T13:58:21.346Z,14.27
2022-10-13T14:00:47.854Z,14.15
2022-10-13T14:03:19.150Z,17.13
2022-10-13T14:05:45.905Z,17.67
2022-10-13T14:08:13.795Z,18.52
2022-10-13T14:10:40.975Z,17.88
2022-10-13T14:13:07.513Z,18.05
2022-10-13T14:15:34.322Z,18.05
2022-10-13T14:18:00.774Z,17.77
2022-10-13T14:20:27.321Z,28.15
2022-10-13T14:22:53.848Z,36.67
2022-10-13T14:25:20.294Z,33.83
2022-10-13T14:27:46.748Z,27.42
2022-10-13T14:30:13.772Z,30.80
2022-10-13T14:32:40.281Z,30.83
2022-10-13T14:35:07.327Z,23.00
2022-10-13T14:37:34.329Z,27.95
2022-10-13T14:40:01.108Z,26.13
2022-10-13T14:42:27.598Z,23.75
2022-10-13T14:44:54.050Z,18.33
2022-10-13T14:47:20.723Z,17.88
2022-10-13T14:49:47.329Z,17.02
2022-10-13T14:52:13.782Z,18.98
2022-10-13T14:54:44.631Z,21.08
2022-10-13T14:57:15.524Z,19.75
2022-10-13T14:59:42.512Z,19.27
2022-10-13T15:02:10.595Z,18.67
2022-10-13T15:04:37.051Z,19.52
2022-10-13T15:07:03.490Z,18.27
2022-10-13T15:09:45.135Z,15.00
2022-10-13T15:12:19.432Z,16.80
2022-10-13T15:14:46.102Z,16.52
2022-10-13T15:17:12.534Z,16.70
2022-10-13T15:19:39.051Z,17.00
2022-10-13T15:22:06.165Z,17.65
2022-10-13T15:24:32.662Z,15.10
2022-10-13T15:27:01.558Z,15.25
2022-10-13T15:29:29.513Z,13.27
2022-10-13T15:32:18.431Z,13.98
2022-10-13T15:34:49.193Z,11.75
2022-10-13T15:37:15.729Z,13.88
2022-10-13T15:39:42.198Z,16.15
2022-10-13T15:42:10.519Z,13.77
2022-10-13T15:47:23.566Z,12.80
2022-10-13T15:49:50.079Z,12.07
2022-10-13T15:52:16.577Z,12.68
2022-10-13T15:54:43.134Z,12.27
2022-10-13T15:57:09.582Z,13.15
2022-10-13T15:59:36.089Z,11.98
2022-10-13T16:02:02.574Z,14.27
2022-10-13T16:04:34.864Z,13.30
2022-10-13T16:09:30.748Z,13.13
2022-10-13T16:11:57.184Z,14.27
2022-10-13T16:14:23.629Z,14.15
2022-10-13T16:16:50.068Z,13.27
2022-10-13T16:19:16.547Z,14.85
2022-10-13T16:21:43.511Z,14.00
2022-10-13T16:24:09.962Z,11.95
2022-10-13T16:26:36.502Z,12.00
2022-10-13T16:29:03.058Z,13.88
2022-10-13T16:31:29.526Z,12.75
2022-10-13T16:33:56.134Z,14.07
2022-10-13T16:36:23.603Z,15.55
2022-10-13T16:38:52.242Z,14.30
2022-10-13T16:41:18.871Z,14.07
2022-10-13T16:43:46.596Z,12.10
2022-10-13T16:46:14.897Z,12.15
2022-10-13T16:48:42.230Z,12.77
2022-10-13T16:51:13.859Z,12.25
2022-10-13T16:53:40.829Z,12.13
2022-10-13T16:56:08.013Z,11.90
2022-10-13T16:58:35.047Z,12.93
2022-10-13T17:01:12.384Z,11.18
2022-10-13T17:03:39.590Z,10.73
2022-10-13T17:06:06.893Z,11.90
2022-10-13T17:08:33.632Z,11.35
2022-10-13T17:11:01.915Z,12.75
2022-10-13T17:13:28.389Z,12.43
2022-10-13T17:15:56.922Z,11.10
2022-10-13T17:18:24.210Z,11.18
2022-10-13T17:21:01.813Z,12.82
2022-10-13T17:23:29.243Z,12.75
2022-10-13T17:25:56.327Z,12.85
2022-10-13T17:28:22.804Z,11.15
2022-10-13T17:30:59.730Z,13.05
2022-10-13T17:33:30.992Z,14.70
2022-10-13T17:36:03.223Z,14.10
2022-10-13T17:38:30.070Z,12.23
2022-10-13T17:41:01.223Z,13.82
2022-10-13T17:43:27.972Z,14.73
2022-10-13T17:45:54.517Z,15.88
2022-10-13T17:48:23.178Z,14.32
2022-10-13T17:50:49.793Z,12.73
2022-10-13T17:53:18.463Z,16.27
2022-10-13T17:55:44.908Z,18.17
2022-10-13T17:58:13.736Z,17.95
2022-10-13T18:01:08.151Z,20.20
2022-10-13T18:03:26.630Z,15.57
2022-10-13T18:05:53.262Z,19.58
2022-10-13T18:08:20.030Z,22.05
2022-10-13T18:11:07.047Z,20.52
2022-10-13T18:13:33.715Z,18.02
2022-10-13T18:16:08.233Z,22.38
2022-10-13T18:18:35.359Z,24.17
2022-10-13T18:21:06.530Z,16.30
2022-10-13T18:23:36.942Z,27.25
2022-10-13T18:26:13.923Z,21.90
2022-10-13T18:28:43.215Z,22.38
2022-10-13T18:31:21.653Z,20.27
2022-10-13T18:33:50.567Z,23.20
2022-10-13T18:36:28.913Z,24.10
2022-10-13T18:39:00.082Z,18.70
2022-10-13T18:41:26.557Z,22.10
2022-10-13T18:43:53.386Z,21.83
2022-10-13T18:46:22.634Z,26.33
2022-10-13T18:48:50.184Z,13.32
2022-10-13T18:51:18.071Z,25.27
2022-10-13T18:53:46.763Z,30.38
2022-10-13T18:56:15.832Z,26.40
2022-10-13T18:58:42.616Z,15.25
2022-10-13T19:01:11.246Z,30.02
2022-10-13T19:03:39.479Z,25.42
2022-10-13T19:06:07.821Z,32.60
2022-10-13T19:08:35.990Z,36.13
2022-10-13T19:11:12.814Z,35.63
2022-10-13T19:13:39.697Z,40.50
2022-10-13T19:16:06.291Z,41.35
2022-10-13T19:18:32.766Z,42.85
2022-10-13T19:20:59.257Z,39.85
2022-10-13T19:23:26.005Z,40.67
2022-10-13T19:25:52.967Z,42.40
2022-10-13T19:28:19.715Z,38.58
2022-10-13T19:30:46.345Z,38.67
2022-10-13T19:33:13.835Z,40.83
2022-10-13T19:38:15.547Z,34.60
2022-10-13T19:40:47.527Z,38.95
2022-10-13T19:43:13.980Z,37.00
2022-10-13T19:45:46.510Z,38.50
2022-10-13T19:48:15.378Z,36.17
2022-10-13T19:50:42.037Z,36.72
2022-10-13T19:53:12.142Z,27.50
2022-10-13T19:55:48.010Z,40.33
2022-10-13T19:58:16.092Z,35.85
2022-10-13T20:00:46.619Z,29.83
2022-10-13T20:03:13.990Z,39.28
2022-10-13T20:05:45.730Z,40.50
2022-10-13T20:08:12.346Z,36.50
2022-10-13T20:10:42.155Z,39.10
2022-10-13T20:13:09.441Z,38.90
2022-10-13T20:15:40.899Z,35.53
2022-10-13T20:18:09.186Z,36.55
2022-10-13T20:20:36.175Z,37.35
2022-10-13T20:23:02.879Z,40.10
2022-10-13T20:25:29.326Z,39.05
2022-10-13T20:27:55.856Z,36.00
2022-10-13T20:30:22.341Z,41.58
2022-10-13T20:32:48.784Z,37.20
2022-10-13T20:35:15.283Z,42.28
2022-10-13T20:37:41.785Z,36.05
2022-10-13T20:40:08.664Z,40.15
2022-10-13T20:42:35.129Z,38.75
2022-10-13T20:45:01.635Z,36.42
2022-10-13T20:47:28.066Z,38.28
2022-10-13T20:49:54.617Z,37.95
2022-10-13T20:52:21.050Z,32.88
2022-10-13T20:54:47.882Z,35.35
2022-10-13T20:57:14.342Z,37.95
2022-10-13T20:59:40.917Z,37.45
2022-10-13T21:02:09.860Z,36.42
2022-10-13T21:04:36.300Z,33.35
2022-10-13T21:07:02.746Z,41.63
2022-10-13T21:09:29.250Z,33.70
2022-10-13T21:11:55.681Z,40.53
2022-10-13T21:14:23.248Z,44.85
2022-10-13T21:16:49.739Z,43.30
2022-10-13T21:19:16.173Z,43.30
2022-10-13T21:21:42.653Z,40.55
2022-10-13T21:24:10.474Z,45.47
2022-10-13T21:26:37.503Z,41.42
2022-10-13T21:29:04.161Z,44.38
2022-10-13T21:31:31.040Z,46.63
2022-10-13T21:33:57.884Z,44.67
2022-10-13T21:36:26.785Z,44.03
2022-10-13T21:38:56.093Z,46.10
2022-10-13T21:41:22.895Z,38.88
2022-10-13T21:43:50.128Z,44.42
2022-10-13T21:46:19.343Z,49.20
2022-10-13T21:48:53.464Z,48.50
2022-10-13T21:51:29.287Z,44.22
2022-10-13T21:53:58.101Z,39.22
2022-10-13T21:56:25.895Z,43.38
2022-10-13T21:58:52.549Z,44.30
2022-10-13T22:01:19.639Z,42.50
2022-10-13T22:03:47.116Z,45.83
2022-10-13T22:06:18.951Z,41.50
2022-10-13T22:08:47.116Z,43.53
2022-10-13T22:11:24.722Z,45.85
2022-10-13T22:13:51.401Z,43.00
2022-10-13T22:16:20.885Z,41.63
2022-10-13T22:18:47.875Z,42.05
2022-10-13T22:21:17.841Z,41.50
2022-10-13T22:23:45.152Z,42.75
2022-10-13T22:26:12.492Z,51.60
2022-10-13T22:28:39.638Z,46.63
2022-10-13T22:31:07.548Z,44.83
2022-10-13T22:33:35.615Z,44.28
2022-10-13T22:36:09.027Z,43.35
2022-10-13T22:38:35.680Z,39.72
2022-10-13T22:41:05.227Z,43.88
2022-10-13T22:43:32.070Z,42.22
2022-10-13T22:46:15.850Z,46.17
2022-10-13T22:48:42.405Z,44.88
2022-10-13T22:51:09.681Z,50.00
2022-10-13T22:53:36.370Z,48.05
2022-10-13T22:56:07.534Z,50.08
2022-10-13T22:58:34.486Z,51.75
2022-10-13T23:01:08.799Z,49.75
2022-10-13T23:03:35.804Z,52.33
2022-10-13T23:06:02.850Z,53.90
2022-10-13T23:08:29.314Z,52.17
2022-10-13T23:10:55.822Z,48.28
2022-10-13T23:13:22.283Z,52.90
2022-10-13T23:15:50.160Z,52.15
2022-10-13T23:18:16.588Z,54.08
2022-10-13T23:20:43.287Z,51.50
2022-10-13T23:23:10.018Z,51.63
2022-10-13T23:25:37.423Z,50.20
2022-10-13T23:28:04.238Z,51.45
2022-10-13T23:30:30.709Z,49.13
2022-10-13T23:32:57.133Z,47.75
2022-10-13T23:35:23.636Z,46.53
2022-10-13T23:37:52.457Z,43.38
2022-10-13T23:40:18.924Z,44.03
2022-10-13T23:42:45.450Z,41.97
2022-10-13T23:45:12.017Z,44.80
2022-10-13T23:47:38.449Z,35.42
2022-10-13T23:50:05.457Z,35.78
2022-10-13T23:52:31.928Z,45.25
2022-10-13T23:54:58.381Z,44.08
2022-10-13T23:57:29.741Z,42.92
2022-10-13T23:59:56.246Z,44.70
